Time;durP1;ratioP1;P1;durP2;ratioP2;P2;SDS_P1;SDS_P2;PMS_P1;PMS_P2;Temp;Humidity;BMP_temperature;BMP_pressure;BME280_temperature;BME280_humidity;BME280_pressure;Samples;Min_cycle;Max_cycle;Signal;HPM_P1;HPM_P2
2021/12/26 00:01:03;;;;;;;7.37;2.47;;;-1.20;86.40;;;;;;5124416;27;20197;-76
2021/12/26 00:03:30;;;;;;;6.13;2.50;;;-1.20;86.50;;;;;;5144852;27;20193;-76
2021/12/26 00:06:00;;;;;;;5.83;2.10;;;-1.20;86.60;;;;;;5107694;28;21316;-76
2021/12/26 00:08:26;;;;;;;4.37;2.23;;;-1.20;86.60;;;;;;5145383;27;20619;-75
2021/12/26 00:10:52;;;;;;;5.13;2.00;;;-1.20;87.40;;;;;;5111526;27;21273;-74
2021/12/26 00:13:20;;;;;;;2.83;1.87;;;-1.20;86.70;;;;;;5113595;27;20193;-76
2021/12/26 00:15:46;;;;;;;3.90;2.00;;;-1.20;86.60;;;;;;5118888;27;20181;-75
2021/12/26 00:18:12;;;;;;;3.03;2.00;;;-1.30;86.50;;;;;;5109346;28;20648;-75
2021/12/26 00:20:38;;;;;;;5.57;2.40;;;-1.30;86.40;;;;;;5109289;28;20797;-75
2021/12/26 00:23:04;;;;;;;4.67;2.00;;;-1.30;86.50;;;;;;5101899;28;20199;-74
2021/12/26 00:25:30;;;;;;;6.17;2.50;;;-1.20;86.50;;;;;;5109187;28;20649;-75
2021/12/26 00:27:56;;;;;;;4.37;2.10;;;-1.20;86.50;;;;;;5110229;27;20268;-74
2021/12/26 00:30:22;;;;;;;5.87;2.30;;;-1.20;86.50;;;;;;5101564;28;20285;-74
2021/12/26 00:32:49;;;;;;;3.70;2.13;;;-1.20;86.50;;;;;;5092519;27;20177;-73
2021/12/26 00:35:20;;;;;;;3.27;2.03;;;-1.20;86.40;;;;;;5110725;28;20258;-75
2021/12/26 00:37:48;;;;;;;4.93;2.23;;;-1.20;86.40;;;;;;5107900;28;20239;-73
2021/12/26 00:40:18;;;;;;;4.53;2.10;;;-1.20;86.20;;;;;;5107344;28;20229;-75
2021/12/26 00:42:44;;;;;;;5.20;2.03;;;-1.30;86.20;;;;;;5113517;27;20640;-74
2021/12/26 00:45:10;;;;;;;5.37;2.33;;;-1.30;86.30;;;;;;5120478;27;20196;-73
2021/12/26 00:47:36;;;;;;;5.97;2.50;;;-1.30;86.20;;;;;;5112847;27;20193;-74
2021/12/26 00:50:05;;;;;;;3.87;1.87;;;-1.30;86.10;;;;;;5111358;27;20211;-74
2021/12/26 00:52:31;;;;;;;3.37;1.90;;;-1.30;86.10;;;;;;5110949;27;20534;-73
2021/12/26 00:54:58;;;;;;;4.87;2.20;;;-1.30;86.10;;;;;;5122037;27;20671;-74
2021/12/26 00:57:24;;;;;;;5.23;2.37;;;-1.30;86.10;;;;;;5118380;27;20292;-75
2021/12/26 00:59:49;;;;;;;4.97;1.83;;;-1.30;86.00;;;;;;5126086;27;20189;-75
2021/12/26 01:02:16;;;;;;;5.70;2.30;;;-1.30;86.00;;;;;;5114154;27;20187;-76
2021/12/26 01:04:42;;;;;;;4.43;2.00;;;-1.30;85.90;;;;;;5110635;27;20185;-74
2021/12/26 01:07:18;;;;;;;4.90;2.00;;;-1.30;85.90;;;;;;5111062;27;20230;-76
2021/12/26 01:09:47;;;;;;;6.37;2.53;;;-1.30;85.90;;;;;;5094961;28;20192;-77
2021/12/26 01:12:16;;;;;;;3.20;2.20;;;-1.20;85.90;;;;;;5108536;28;20199;-76
2021/12/26 01:14:50;;;;;;;4.83;2.20;;;-1.20;85.80;;;;;;5116366;27;20181;-76
2021/12/26 01:17:40;;;;;;;4.70;2.37;;;-1.20;85.70;;;;;;5119419;27;20188;-74
2021/12/26 01:20:26;;;;;;;2.93;2.00;;;-1.30;85.60;;;;;;5091991;28;20181;-75
2021/12/26 01:22:53;;;;;;;4.30;2.40;;;-1.30;85.70;;;;;;5093745;28;20290;-75
2021/12/26 01:25:19;;;;;;;4.23;2.33;;;-1.30;85.70;;;;;;5108271;28;20185;-74
2021/12/26 01:27:44;;;;;;;4.00;2.10;;;-1.30;85.70;;;;;;5093151;28;20201;-76
2021/12/26 01:30:10;;;;;;;3.93;2.27;;;-1.30;85.80;;;;;;5110488;27;20602;-74
2021/12/26 01:32:41;;;;;;;4.47;2.33;;;-1.30;85.90;;;;;;5111310;27;20677;-74
2021/12/26 01:35:27;;;;;;;3.63;2.03;;;-1.40;85.90;;;;;;5114454;27;20191;-76
2021/12/26 01:38:22;;;;;;;3.47;2.03;;;-1.40;86.00;;;;;;5097800;28;20223;-74
2021/12/26 01:40:52;;;;;;;4.43;2.10;;;-1.40;86.00;;;;;;5108846;27;20185;-77
2021/12/26 01:43:45;;;;;;;7.93;2.30;;;-1.30;86.00;;;;;;5110955;27;21015;-77
2021/12/26 01:46:29;;;;;;;3.70;1.90;;;-1.30;86.10;;;;;;5108470;28;20210;-74
2021/12/26 01:49:22;;;;;;;6.00;1.97;;;-1.40;86.00;;;;;;5102675;27;20593;-76
2021/12/26 01:51:51;;;;;;;3.60;1.90;;;-1.40;85.90;;;;;;5087420;28;20710;-74
2021/12/26 01:54:32;;;;;;;5.00;1.90;;;-1.40;86.00;;;;;;5112384;27;20188;-75
2021/12/26 01:57:00;;;;;;;3.30;2.00;;;-1.40;86.10;;;;;;5099145;28;20203;-73
2021/12/26 01:59:26;;;;;;;4.87;2.20;;;-1.40;86.00;;;;;;5115757;27;20181;-76
2021/12/26 02:02:02;;;;;;;3.47;1.87;;;-1.40;86.80;;;;;;5094106;28;20184;-77
2021/12/26 02:04:28;;;;;;;3.67;1.80;;;-1.40;86.00;;;;;;5094223;28;20192;-75
2021/12/26 02:06:57;;;;;;;3.00;2.17;;;-1.40;86.10;;;;;;5096841;27;20180;-76
2021/12/26 02:09:23;;;;;;;3.37;1.93;;;-1.40;86.20;;;;;;5103962;27;20204;-74
2021/12/26 02:11:52;;;;;;;4.07;2.30;;;-1.40;86.20;;;;;;5099512;28;20173;-77
2021/12/26 02:14:19;;;;;;;3.50;2.00;;;-1.50;86.30;;;;;;5112211;27;20213;-76
2021/12/26 02:17:07;;;;;;;4.30;2.07;;;-1.40;86.40;;;;;;5116062;27;20668;-76
2021/12/26 02:19:33;;;;;;;5.47;2.40;;;-1.40;86.70;;;;;;5109554;27;20176;-76
2021/12/26 02:22:10;;;;;;;2.73;2.00;;;-1.40;86.50;;;;;;5109807;27;20185;-75
2021/12/26 02:27:32;;;;;;;4.17;2.00;;;-1.40;86.50;;;;;;5070770;27;20192;-77
2021/12/26 02:30:11;;;;;;;4.77;2.00;;;-1.40;86.50;;;;;;5108224;28;20347;-76
2021/12/26 02:32:38;;;;;;;4.37;2.10;;;-1.40;86.50;;;;;;5090167;28;20188;-76
2021/12/26 02:35:04;;;;;;;2.80;1.80;;;-1.40;86.50;;;;;;5097528;28;20549;-79
2021/12/26 02:37:30;;;;;;;4.20;2.13;;;-1.40;86.50;;;;;;5097294;28;20176;-78
2021/12/26 02:39:56;;;;;;;3.50;2.13;;;-1.40;86.60;;;;;;5119283;28;20279;-75
2021/12/26 02:42:23;;;;;;;3.10;1.93;;;-1.40;86.60;;;;;;5110365;28;20267;-73
2021/12/26 02:44:51;;;;;;;3.20;2.00;;;-1.40;86.60;;;;;;5092663;28;20267;-76
2021/12/26 02:47:38;;;;;;;3.40;2.10;;;-1.40;86.70;;;;;;5108407;27;20185;-74
2021/12/26 02:50:10;;;;;;;3.83;2.23;;;-1.40;86.70;;;;;;5115290;28;20204;-77
2021/12/26 02:52:36;;;;;;;4.03;2.30;;;-1.40;86.70;;;;;;5118254;28;20185;-76
2021/12/26 02:55:03;;;;;;;4.83;2.30;;;-1.40;86.80;;;;;;5119833;28;20641;-79
2021/12/26 02:57:29;;;;;;;3.80;2.30;;;-1.40;86.80;;;;;;5116461;28;20213;-73
2021/12/26 02:59:55;;;;;;;3.97;2.10;;;-1.50;86.80;;;;;;5114659;28;20258;-77
2021/12/26 03:02:21;;;;;;;4.23;2.13;;;-1.40;86.90;;;;;;5095305;28;20221;-77
2021/12/26 03:04:46;;;;;;;3.23;1.97;;;-1.50;86.90;;;;;;5102634;28;20185;-76
2021/12/26 03:07:12;;;;;;;4.43;2.40;;;-1.50;86.90;;;;;;5116753;27;20251;-76
2021/12/26 03:09:46;;;;;;;5.60;2.30;;;-1.50;86.90;;;;;;5114498;28;20235;-78
2021/12/26 03:12:13;;;;;;;4.13;2.10;;;-1.50;87.00;;;;;;5117081;28;20257;-80
2021/12/26 03:14:40;;;;;;;4.50;2.20;;;-1.50;87.10;;;;;;5120173;28;20246;-75
2021/12/26 03:17:06;;;;;;;4.23;2.20;;;-1.40;87.20;;;;;;5113695;28;20524;-76
2021/12/26 03:19:34;;;;;;;5.53;2.60;;;-1.50;87.20;;;;;;5124429;28;20191;-77
2021/12/26 03:22:00;;;;;;;5.10;2.33;;;-1.50;87.10;;;;;;5115894;27;20181;-77
2021/12/26 03:24:26;;;;;;;5.50;2.40;;;-1.50;87.20;;;;;;5115597;28;20623;-77
2021/12/26 03:27:01;;;;;;;4.23;2.20;;;-1.50;87.20;;;;;;5116285;27;20264;-74
2021/12/26 03:29:27;;;;;;;3.43;2.20;;;-1.50;87.30;;;;;;5100953;28;20293;-76
2021/12/26 03:31:54;;;;;;;4.73;2.27;;;-1.50;87.40;;;;;;5095975;28;20181;-82
2021/12/26 03:34:20;;;;;;;5.63;2.23;;;-1.50;87.40;;;;;;5113916;28;20187;-76
2021/12/26 03:36:50;;;;;;;3.97;2.00;;;-1.50;87.50;;;;;;5118306;27;20659;-73
2021/12/26 03:39:16;;;;;;;4.10;2.07;;;-1.50;87.60;;;;;;5118716;28;20220;-76
2021/12/26 03:41:42;;;;;;;3.73;2.37;;;-1.50;87.80;;;;;;5142019;27;20192;-74
2021/12/26 03:44:08;;;;;;;3.07;1.70;;;-1.50;87.80;;;;;;5120937;28;20189;-74
2021/12/26 03:46:34;;;;;;;6.07;2.13;;;-1.50;87.90;;;;;;5111737;28;20273;-74
2021/12/26 03:49:04;;;;;;;4.47;2.23;;;-1.50;87.90;;;;;;5108158;28;20205;-73
2021/12/26 03:51:29;;;;;;;3.43;2.10;;;-1.40;87.90;;;;;;5113722;27;20230;-74
2021/12/26 03:53:55;;;;;;;3.57;2.40;;;-1.40;88.00;;;;;;5111193;28;20634;-72
2021/12/26 03:56:21;;;;;;;4.83;2.53;;;-1.40;88.10;;;;;;5120373;27;20728;-73
2021/12/26 03:59:03;;;;;;;2.90;1.90;;;-1.50;88.10;;;;;;5111866;27;20177;-72
2021/12/26 04:01:29;;;;;;;3.97;2.37;;;-1.40;88.20;;;;;;5107947;28;20663;-76
2021/12/26 04:03:55;;;;;;;3.80;2.20;;;-1.40;88.10;;;;;;5113623;27;20669;-73
2021/12/26 04:06:21;;;;;;;4.37;2.10;;;-1.40;88.10;;;;;;5107729;27;20183;-73
2021/12/26 04:08:46;;;;;;;3.20;1.83;;;-1.40;88.10;;;;;;5125445;27;20301;-72
2021/12/26 04:11:12;;;;;;;3.67;2.30;;;-1.40;88.00;;;;;;5107263;28;20193;-73
2021/12/26 04:13:39;;;;;;;4.27;2.40;;;-1.40;88.00;;;;;;5117120;27;20181;-73
2021/12/26 04:16:05;;;;;;;5.87;2.20;;;-1.50;88.00;;;;;;5091873;28;20747;-73
2021/12/26 04:18:34;;;;;;;5.40;2.20;;;-1.50;88.20;;;;;;5119339;27;20596;-75
2021/12/26 04:20:59;;;;;;;3.77;2.57;;;-1.50;88.30;;;;;;5112084;27;20177;-74
2021/12/26 04:23:29;;;;;;;7.63;2.47;;;-1.50;88.40;;;;;;5107423;28;20679;-74
2021/12/26 04:25:55;;;;;;;4.37;1.97;;;-1.50;88.50;;;;;;5095421;28;20181;-74
2021/12/26 04:28:20;;;;;;;3.93;2.50;;;-1.50;88.50;;;;;;5109446;28;20221;-75
2021/12/26 04:30:46;;;;;;;6.03;2.33;;;-1.50;88.50;;;;;;5110946;27;20268;-73
2021/12/26 04:33:13;;;;;;;3.13;2.07;;;-1.50;88.50;;;;;;5116689;27;20197;-72
2021/12/26 04:35:40;;;;;;;5.10;2.53;;;-1.50;88.50;;;;;;5117191;27;20173;-71
2021/12/26 04:38:06;;;;;;;3.90;2.50;;;-1.50;88.60;;;;;;5117421;27;20232;-74
2021/12/26 04:40:31;;;;;;;4.10;2.30;;;-1.50;88.70;;;;;;5110506;27;20181;-74
2021/12/26 04:43:16;;;;;;;3.90;2.10;;;-1.50;88.80;;;;;;5111106;28;20192;-72
2021/12/26 04:45:53;;;;;;;4.17;2.33;;;-1.50;88.80;;;;;;5106719;28;20200;-72
2021/12/26 04:48:47;;;;;;;3.33;2.13;;;-1.50;88.90;;;;;;5113014;27;20234;-73
2021/12/26 04:51:13;;;;;;;3.43;2.20;;;-1.50;88.80;;;;;;5124701;27;20924;-72
2021/12/26 04:53:40;;;;;;;5.27;2.63;;;-1.50;88.80;;;;;;5117732;27;20533;-73
2021/12/26 04:56:07;;;;;;;5.80;1.93;;;-1.50;88.80;;;;;;5096014;28;20186;-75
2021/12/26 04:58:33;;;;;;;3.83;2.20;;;-1.50;88.90;;;;;;5111208;27;20596;-74
2021/12/26 05:00:59;;;;;;;7.80;2.37;;;-1.50;89.00;;;;;;5105400;28;21809;-74
2021/12/26 05:03:25;;;;;;;4.90;2.40;;;-1.50;89.10;;;;;;5124870;27;20200;-74
2021/12/26 05:05:51;;;;;;;3.40;2.10;;;-1.40;89.30;;;;;;5111016;27;20185;-74
2021/12/26 05:08:17;;;;;;;6.73;2.50;;;-1.40;89.30;;;;;;5124648;27;20236;-75
2021/12/26 05:10:43;;;;;;;3.73;2.23;;;-1.40;89.40;;;;;;5107530;28;20246;-74
2021/12/26 05:13:09;;;;;;;4.33;2.33;;;-1.30;89.30;;;;;;5104969;28;20229;-75
2021/12/26 05:15:35;;;;;;;3.97;2.20;;;-1.30;89.40;;;;;;5109409;28;20694;-73
2021/12/26 05:18:04;;;;;;;2.83;1.80;;;-1.30;89.40;;;;;;5106857;27;20874;-74
2021/12/26 05:20:32;;;;;;;3.73;2.10;;;-1.40;89.40;;;;;;5090552;28;20234;-74
2021/12/26 05:22:58;;;;;;;6.57;2.23;;;-1.30;89.40;;;;;;5131410;27;20629;-73
2021/12/26 05:25:24;;;;;;;3.47;2.10;;;-1.30;89.40;;;;;;5106371;27;20200;-73
2021/12/26 05:27:52;;;;;;;4.10;2.20;;;-1.30;89.40;;;;;;5101965;27;20177;-72
2021/12/26 05:30:20;;;;;;;5.37;2.40;;;-1.40;89.40;;;;;;5109228;27;20224;-75
2021/12/26 05:32:48;;;;;;;3.93;2.17;;;-1.40;89.40;;;;;;5109772;27;20177;-74
2021/12/26 05:35:16;;;;;;;5.77;2.20;;;-1.40;89.40;;;;;;5101151;28;20587;-73
2021/12/26 05:37:43;;;;;;;5.37;2.30;;;-1.40;89.50;;;;;;5131957;27;20603;-73
2021/12/26 05:40:11;;;;;;;5.63;2.50;;;-1.40;89.50;;;;;;5104045;28;20185;-72
2021/12/26 05:42:40;;;;;;;6.60;2.17;;;-1.40;89.60;;;;;;5127794;27;20272;-72
2021/12/26 05:45:08;;;;;;;6.37;2.83;;;-1.40;89.60;;;;;;5104809;28;20188;-74
2021/12/26 05:47:41;;;;;;;5.20;3.10;;;-1.40;89.80;;;;;;5102873;27;20612;-73
2021/12/26 05:50:09;;;;;;;4.30;2.60;;;-1.50;89.80;;;;;;5107299;28;20684;-75
2021/12/26 05:52:39;;;;;;;5.20;2.70;;;-1.50;90.20;;;;;;5100408;27;20181;-73
2021/12/26 05:55:16;;;;;;;5.23;2.53;;;-1.50;89.80;;;;;;5106333;27;20209;-73
2021/12/26 05:57:42;;;;;;;5.57;2.57;;;-1.50;89.90;;;;;;5092596;27;20187;-73
2021/12/26 06:00:13;;;;;;;3.93;2.33;;;-1.50;89.80;;;;;;5106732;27;20182;-74
2021/12/26 06:02:42;;;;;;;3.67;2.47;;;-1.50;90.00;;;;;;5107187;27;20212;-74
2021/12/26 06:05:08;;;;;;;7.13;2.40;;;-1.50;90.20;;;;;;5090245;28;20227;-75
2021/12/26 06:07:34;;;;;;;3.70;2.33;;;-1.50;90.00;;;;;;5113639;27;20621;-75
2021/12/26 06:10:00;;;;;;;4.43;2.50;;;-1.50;90.00;;;;;;5110589;27;20232;-74
2021/12/26 06:12:25;;;;;;;5.63;2.53;;;-1.50;90.00;;;;;;5101257;28;20182;-76
2021/12/26 06:14:51;;;;;;;3.90;2.40;;;-1.50;90.00;;;;;;5133493;27;20566;-74
2021/12/26 06:17:17;;;;;;;5.00;2.50;;;-1.60;90.00;;;;;;5104388;27;20177;-75
2021/12/26 06:20:17;;;;;;;5.40;2.73;;;-1.60;90.10;;;;;;5097430;28;20216;-75
2021/12/26 06:23:04;;;;;;;3.40;2.00;;;-1.60;90.10;;;;;;5060001;27;20196;-75
2021/12/26 06:25:52;;;;;;;5.13;2.33;;;-1.60;90.20;;;;;;5109868;27;20196;-75
2021/12/26 06:28:22;;;;;;;3.80;2.40;;;-1.60;90.10;;;;;;5124466;27;20204;-74
2021/12/26 06:31:07;;;;;;;7.13;2.63;;;-1.60;90.20;;;;;;5107376;28;20177;-76
2021/12/26 06:34:04;;;;;;;4.60;2.30;;;-1.60;90.20;;;;;;5121412;27;20246;-75
2021/12/26 06:36:49;;;;;;;5.83;2.80;;;-1.60;90.50;;;;;;5107720;28;20672;-75
2021/12/26 06:39:33;;;;;;;6.00;2.33;;;-1.70;90.20;;;;;;5105933;28;20291;-75
2021/12/26 06:42:17;;;;;;;5.43;2.53;;;-1.70;90.20;;;;;;5110319;28;20326;-73
2021/12/26 06:45:01;;;;;;;5.17;2.60;;;-1.70;90.30;;;;;;5112578;28;20196;-72
2021/12/26 06:47:52;;;;;;;5.82;2.80;;;-1.70;90.30;;;;;;5108602;28;20431;-74
2021/12/26 06:50:19;;;;;;;5.27;2.33;;;-1.50;91.40;;;;;;5093114;28;21067;-75
2021/12/26 06:52:45;;;;;;;6.87;2.77;;;-1.50;91.10;;;;;;5114797;28;20233;-76
2021/12/26 06:55:11;;;;;;;3.33;2.23;;;-1.50;91.10;;;;;;5110622;28;20594;-74
2021/12/26 06:57:40;;;;;;;4.47;2.37;;;-1.50;91.20;;;;;;5114976;28;20181;-74
2021/12/26 07:00:10;;;;;;;6.13;2.87;;;-1.50;91.20;;;;;;5117717;27;20203;-75
2021/12/26 07:02:35;;;;;;;5.90;2.60;;;-1.50;91.10;;;;;;5120716;28;20177;-75
2021/12/26 07:05:02;;;;;;;3.10;2.40;;;-1.50;91.10;;;;;;5106289;28;20675;-76
2021/12/26 07:07:41;;;;;;;6.03;2.70;;;-1.60;91.10;;;;;;5109036;28;20203;-78
2021/12/26 07:10:08;;;;;;;6.30;2.50;;;-1.60;91.10;;;;;;5116767;28;20260;-75
2021/12/26 07:12:34;;;;;;;4.27;2.70;;;-1.60;91.10;;;;;;5114967;28;20264;-77
2021/12/26 07:15:26;;;;;;;5.33;3.00;;;-1.60;91.10;;;;;;5120269;28;20219;-77
2021/12/26 07:17:57;;;;;;;5.23;2.80;;;-1.60;91.10;;;;;;5116040;28;20210;-77
2021/12/26 07:20:24;;;;;;;5.33;2.97;;;-1.60;91.10;;;;;;5108494;28;20189;-72
2021/12/26 07:23:25;;;;;;;4.63;2.77;;;-1.60;91.10;;;;;;5095798;28;20204;-75
2021/12/26 07:25:59;;;;;;;4.73;2.63;;;-1.60;91.20;;;;;;5115308;27;20180;-74
2021/12/26 07:28:25;;;;;;;4.37;2.00;;;-1.60;91.10;;;;;;5115666;27;20243;-76
2021/12/26 07:31:04;;;;;;;4.43;2.40;;;-1.60;91.10;;;;;;5117561;27;20227;-76
2021/12/26 07:33:31;;;;;;;5.47;2.73;;;-1.60;91.20;;;;;;5117941;27;20649;-75
2021/12/26 07:36:01;;;;;;;4.33;2.70;;;-1.60;91.20;;;;;;5115788;27;20173;-76
2021/12/26 07:38:42;;;;;;;4.27;2.50;;;-1.60;91.20;;;;;;5128951;27;20244;-79
2021/12/26 07:41:08;;;;;;;5.63;2.80;;;-1.60;91.30;;;;;;5117910;27;20770;-77
2021/12/26 07:43:35;;;;;;;7.07;3.20;;;-1.60;91.30;;;;;;5115991;27;20916;-77
2021/12/26 07:46:24;;;;;;;5.03;3.00;;;-1.60;91.30;;;;;;5102450;27;20200;-80
2021/12/26 07:48:52;;;;;;;4.60;2.83;;;-1.60;91.30;;;;;;5114929;27;20687;-77
2021/12/26 07:51:37;;;;;;;6.57;3.30;;;-1.60;91.30;;;;;;5113015;27;20551;-79
2021/12/26 07:54:23;;;;;;;5.80;2.97;;;-1.60;91.30;;;;;;5121631;27;20241;-78
2021/12/26 07:57:08;;;;;;;4.67;3.10;;;-1.60;91.40;;;;;;5122829;27;20198;-77
2021/12/26 07:59:52;;;;;;;6.80;3.00;;;-1.60;91.40;;;;;;5123633;27;20196;-78
2021/12/26 08:02:44;;;;;;;5.27;2.73;;;-1.60;91.40;;;;;;5084045;27;20296;-78
2021/12/26 08:05:28;;;;;;;7.63;2.80;;;-1.60;91.40;;;;;;5113992;27;20238;-78
2021/12/26 08:08:26;;;;;;;7.60;2.90;;;-1.60;91.50;;;;;;5112234;27;20204;-76
2021/12/26 08:10:51;;;;;;;5.50;2.87;;;-1.60;91.50;;;;;;5120134;27;20184;-79
2021/12/26 08:13:17;;;;;;;7.10;3.03;;;-1.60;91.50;;;;;;5114315;27;20268;-78
2021/12/26 08:15:43;;;;;;;7.00;3.00;;;-1.60;91.60;;;;;;5114507;27;20671;-76
2021/12/26 08:18:09;;;;;;;6.20;2.67;;;-1.60;91.60;;;;;;5118160;27;20177;-75
2021/12/26 08:20:35;;;;;;;4.37;2.83;;;-1.60;92.00;;;;;;5117595;27;20269;-74
2021/12/26 08:23:01;;;;;;;4.90;3.10;;;-1.60;91.70;;;;;;5112816;27;20204;-75
2021/12/26 08:25:28;;;;;;;4.93;2.70;;;-1.50;91.80;;;;;;5113561;27;20312;-76
2021/12/26 08:27:54;;;;;;;6.67;3.13;;;-1.50;91.80;;;;;;5124499;27;20189;-75
2021/12/26 08:30:20;;;;;;;6.47;3.17;;;-1.50;91.90;;;;;;5114687;27;20583;-74
2021/12/26 08:32:50;;;;;;;6.50;3.30;;;-1.40;91.90;;;;;;5114038;27;20181;-75
2021/12/26 08:35:17;;;;;;;5.53;2.90;;;-1.40;92.00;;;;;;5126968;27;20581;-79
2021/12/26 08:37:45;;;;;;;10.53;4.77;;;-1.40;91.90;;;;;;5111465;27;20181;-77
2021/12/26 08:40:11;;;;;;;5.70;3.30;;;-1.40;92.00;;;;;;5104797;27;20634;-74
2021/12/26 08:42:37;;;;;;;5.63;3.47;;;-1.30;92.00;;;;;;5110387;27;20228;-73
2021/12/26 08:45:03;;;;;;;5.63;3.00;;;-1.30;92.00;;;;;;5111623;28;20610;-76
2021/12/26 08:47:28;;;;;;;7.07;3.50;;;-1.30;92.10;;;;;;5123952;27;20751;-78
2021/12/26 08:49:54;;;;;;;6.83;3.57;;;-1.30;92.10;;;;;;5109021;28;20230;-75
2021/12/26 08:52:20;;;;;;;6.33;3.57;;;-1.20;92.20;;;;;;5106551;27;20178;-76
2021/12/26 08:54:46;;;;;;;5.50;3.60;;;-1.20;92.20;;;;;;5112420;27;22505;-76
2021/12/26 08:57:12;;;;;;;5.43;3.07;;;-1.20;92.20;;;;;;5125953;27;20255;-77
2021/12/26 08:59:40;;;;;;;4.77;3.00;;;-1.10;92.20;;;;;;5105882;27;20192;-76
2021/12/26 09:02:07;;;;;;;6.30;3.13;;;-1.10;92.20;;;;;;5108179;27;20175;-76
2021/12/26 09:04:37;;;;;;;6.57;3.30;;;-1.00;92.30;;;;;;5109008;27;20525;-75
2021/12/26 09:07:03;;;;;;;5.33;3.00;;;-1.00;92.30;;;;;;5122714;27;20200;-74
2021/12/26 09:09:29;;;;;;;6.90;3.73;;;-0.90;92.30;;;;;;5089277;28;20593;-74
2021/12/26 09:11:58;;;;;;;6.73;3.60;;;-0.80;92.40;;;;;;5103658;28;20189;-74
2021/12/26 09:14:26;;;;;;;4.90;3.27;;;-0.80;92.30;;;;;;5106578;28;20178;-73
2021/12/26 09:16:52;;;;;;;8.20;4.10;;;-0.70;92.40;;;;;;5119759;27;20551;-75
2021/12/26 09:19:17;;;;;;;6.93;3.93;;;-0.60;92.70;;;;;;5105238;27;20200;-73
2021/12/26 09:21:43;;;;;;;6.80;3.87;;;-0.30;93.30;;;;;;5108179;27;20201;-75
2021/12/26 09:24:09;;;;;;;7.83;4.03;;;0.20;94.10;;;;;;5089073;28;20819;-74
2021/12/26 09:26:34;;;;;;;;;;;0.90;94.60;;;;;;5106070;28;20373;-74
2021/12/26 09:29:00;;;;;;;7.32;4.47;;;1.50;94.40;;;;;;5106673;27;20179;-75
2021/12/26 09:31:26;;;;;;;9.20;4.18;;;2.20;94.90;;;;;;5105937;28;20196;-74
2021/12/26 09:33:52;;;;;;;7.47;4.00;;;2.90;95.00;;;;;;5106255;27;20188;-78
2021/12/26 09:36:19;;;;;;;5.60;3.80;;;3.60;94.60;;;;;;5106845;27;20206;-74
2021/12/26 09:38:45;;;;;;;6.32;3.95;;;4.30;93.90;;;;;;5107721;27;20232;-74
2021/12/26 09:41:10;;;;;;;5.97;4.20;;;4.90;92.90;;;;;;5106293;28;20199;-77
2021/12/26 09:43:37;;;;;;;17.83;7.68;;;5.40;91.90;;;;;;5107041;27;20229;-77
2021/12/26 09:46:03;;;;;;;7.15;4.47;;;5.80;91.10;;;;;;5140440;27;20416;-76
2021/12/26 09:48:28;;;;;;;6.03;4.30;;;7.60;68.40;;;;;;5116908;27;20426;-77
2021/12/26 09:50:54;;;;;;;6.53;4.10;;;8.80;58.90;;;;;;5113988;27;20415;-76
2021/12/26 09:53:20;;;;;;;5.63;3.90;;;9.50;56.00;;;;;;5119829;27;20401;-75
2021/12/26 09:55:46;;;;;;;5.90;4.10;;;10.00;53.60;;;;;;5109525;27;20408;-75
2021/12/26 09:58:11;;;;;;;6.60;3.78;;;10.30;52.00;;;;;;5109887;27;20486;-75
2021/12/26 10:00:40;;;;;;;5.35;4.00;;;10.50;50.60;;;;;;5102854;27;20407;-76
2021/12/26 10:03:16;;;;;;;8.23;4.45;;;10.40;50.20;;;;;;5102271;27;20715;-75
2021/12/26 10:06:02;;;;;;;6.75;4.55;;;9.90;50.50;;;;;;5105335;27;20453;-77
2021/12/26 10:08:34;;;;;;;9.00;4.35;;;9.00;52.20;;;;;;5111232;27;20185;-74
2021/12/26 10:11:14;;;;;;;6.00;4.05;;;7.60;56.20;;;;;;5107413;27;20216;-73
2021/12/26 10:13:46;;;;;;;5.82;3.90;;;6.30;59.50;;;;;;5108151;28;20249;-75
2021/12/26 10:16:14;;;;;;;6.75;4.38;;;5.30;62.80;;;;;;5100739;27;20182;-75
2021/12/26 10:18:41;;;;;;;10.25;6.05;;;4.60;65.60;;;;;;5094424;27;20273;-75
2021/12/26 10:21:30;;;;;;;12.45;6.55;;;4.10;67.70;;;;;;5110936;27;20212;-74
2021/12/26 10:24:00;;;;;;;8.25;4.68;;;3.50;69.60;;;;;;5106787;27;20196;-72
2021/12/26 10:26:28;;;;;;;7.10;4.20;;;3.30;71.90;;;;;;5107857;28;20189;-74
2021/12/26 10:29:33;;;;;;;6.95;4.10;;;3.00;72.50;;;;;;5111829;27;20224;-73
2021/12/26 10:32:02;;;;;;;7.90;4.18;;;2.80;73.50;;;;;;5106941;28;20192;-73
2021/12/26 10:34:29;;;;;;;7.50;4.40;;;2.60;74.30;;;;;;5110042;28;20185;-73
2021/12/26 10:36:57;;;;;;;7.95;4.32;;;2.40;75.10;;;;;;5104386;28;20181;-74
2021/12/26 10:39:33;;;;;;;6.75;4.28;;;2.30;75.50;;;;;;5104705;28;20228;-75
2021/12/26 10:42:06;;;;;;;7.57;4.57;;;2.20;77.30;;;;;;5107076;28;20176;-74
2021/12/26 10:44:42;;;;;;;6.88;4.35;;;2.10;76.90;;;;;;5094926;28;20184;-73
2021/12/26 10:47:18;;;;;;;6.30;4.13;;;2.10;77.40;;;;;;5108703;28;20726;-73
2021/12/26 10:49:48;;;;;;;8.00;4.72;;;2.00;77.90;;;;;;5102881;28;20385;-73
2021/12/26 10:52:28;;;;;;;7.20;4.38;;;2.00;78.50;;;;;;5105915;28;20185;-72
2021/12/26 10:55:00;;;;;;;6.65;4.00;;;2.00;78.90;;;;;;5109402;28;20169;-71
2021/12/26 10:57:35;;;;;;;7.55;4.97;;;2.00;79.60;;;;;;5107625;28;20196;-73
2021/12/26 11:00:16;;;;;;;9.38;4.85;;;2.00;79.80;;;;;;5108765;28;20236;-73
2021/12/26 11:02:45;;;;;;;7.30;4.28;;;1.90;80.60;;;;;;5113399;27;20645;-71
2021/12/26 11:05:14;;;;;;;7.05;4.55;;;2.00;80.90;;;;;;5084767;28;20813;-70
2021/12/26 11:07:43;;;;;;;6.82;4.60;;;1.90;81.10;;;;;;5114357;27;20539;-72
2021/12/26 11:10:21;;;;;;;7.38;4.88;;;2.00;81.90;;;;;;5117523;27;20569;-72
2021/12/26 11:12:50;;;;;;;7.68;4.90;;;2.00;82.20;;;;;;5111153;28;20215;-70
2021/12/26 11:15:18;;;;;;;10.63;5.80;;;2.00;82.50;;;;;;5116494;27;20660;-73
2021/12/26 11:18:04;;;;;;;12.43;5.35;;;2.00;82.80;;;;;;5095467;27;20200;-73
2021/12/26 11:20:32;;;;;;;9.03;5.53;;;2.00;83.30;;;;;;5086862;27;20193;-72
2021/12/26 11:22:58;;;;;;;10.55;5.65;;;2.00;83.90;;;;;;5092803;28;20645;-73
2021/12/26 11:25:25;;;;;;;10.73;5.57;;;2.10;84.30;;;;;;5119205;27;20704;-72
2021/12/26 11:27:51;;;;;;;14.15;7.80;;;2.10;84.60;;;;;;5070445;28;20193;-72
2021/12/26 11:30:18;;;;;;;14.73;7.53;;;2.20;85.00;;;;;;5085566;27;20254;-72
2021/12/26 11:32:44;;;;;;;11.27;5.97;;;2.30;85.70;;;;;;5084535;27;20230;-71
2021/12/26 11:35:10;;;;;;;10.10;5.85;;;2.50;86.60;;;;;;5086021;27;20396;-71
2021/12/26 11:37:38;;;;;;;15.50;8.52;;;2.80;87.80;;;;;;5087044;28;20988;-71
2021/12/26 11:40:32;;;;;;;8.90;5.43;;;3.10;88.00;;;;;;5108097;27;20567;-70
2021/12/26 11:43:38;;;;;;;8.73;5.28;;;3.30;88.00;;;;;;5112285;28;20201;-70
2021/12/26 11:46:47;;;;;;;10.03;6.30;;;3.50;88.40;;;;;;5103594;28;20487;-70
2021/12/26 11:50:03;;;;;;;8.40;5.80;;;4.60;83.20;;;;;;5108559;27;20862;-70
2021/12/26 11:53:16;;;;;;;8.45;6.22;;;5.20;80.20;;;;;;5070288;28;20469;-72
2021/12/26 11:56:15;;;;;;;9.13;6.40;;;5.40;78.80;;;;;;5104888;28;20518;-72
2021/12/26 11:58:59;;;;;;;8.80;6.30;;;5.40;78.30;;;;;;5089242;28;20470;-72
2021/12/26 12:01:26;;;;;;;8.20;6.05;;;5.30;78.60;;;;;;5107623;27;20411;-72
2021/12/26 12:04:17;;;;;;;8.52;6.35;;;5.30;78.70;;;;;;5109060;28;20936;-71
2021/12/26 12:06:44;;;;;;;8.70;6.53;;;5.20;79.10;;;;;;5115597;27;20400;-70
2021/12/26 12:09:50;;;;;;;9.40;6.23;;;5.20;79.40;;;;;;5121772;27;20409;-70
2021/12/26 12:12:16;;;;;;;8.75;6.13;;;5.10;78.60;;;;;;5016412;28;20424;-71
2021/12/26 12:14:54;;;;;;;10.30;6.15;;;5.10;79.30;;;;;;5023364;28;20415;-71
2021/12/26 12:17:27;;;;;;;10.60;6.13;;;5.10;79.10;;;;;;5070658;28;20408;-70
2021/12/26 12:20:22;;;;;;;9.25;6.72;;;5.00;79.20;;;;;;5106468;27;20412;-71
2021/12/26 12:23:07;;;;;;;9.55;6.68;;;4.90;79.80;;;;;;5087473;28;20504;-71
2021/12/26 12:25:36;;;;;;;10.10;6.47;;;4.90;80.50;;;;;;5110983;28;20880;-70
2021/12/26 12:28:16;;;;;;;14.70;9.80;;;4.90;80.00;;;;;;5109898;27;20396;-71
2021/12/26 12:30:58;;;;;;;14.82;9.60;;;4.90;80.60;;;;;;5108985;27;20735;-71
2021/12/26 12:33:29;;;;;;;12.85;7.70;;;4.90;81.20;;;;;;5108424;28;20410;-71
2021/12/26 12:36:03;;;;;;;9.70;6.85;;;4.80;81.50;;;;;;5110690;27;20400;-71
2021/12/26 12:38:39;;;;;;;10.20;6.80;;;4.80;81.90;;;;;;5113429;27;20402;-71
2021/12/26 12:41:28;;;;;;;9.60;6.85;;;4.80;82.40;;;;;;5109196;28;20411;-73
2021/12/26 12:43:54;;;;;;;9.48;6.90;;;4.80;82.60;;;;;;5098895;28;20408;-72
2021/12/26 12:46:21;;;;;;;9.43;6.88;;;4.80;82.70;;;;;;5120018;27;20526;-73
2021/12/26 12:49:00;;;;;;;9.45;6.85;;;4.70;83.30;;;;;;5110058;27;20419;-72
2021/12/26 12:51:26;;;;;;;10.60;7.67;;;4.80;83.10;;;;;;5116932;27;20405;-72
2021/12/26 12:53:57;;;;;;;10.40;6.93;;;4.70;83.40;;;;;;5110377;27;20525;-72
2021/12/26 12:56:33;;;;;;;10.25;6.95;;;4.80;83.80;;;;;;5107206;28;20552;-72
2021/12/26 12:59:19;;;;;;;10.05;6.88;;;4.80;84.00;;;;;;5101390;28;20456;-71
2021/12/26 13:01:52;;;;;;;9.50;7.20;;;4.70;83.40;;;;;;5090483;28;20416;-72
2021/12/26 13:04:23;;;;;;;10.27;7.18;;;4.70;83.80;;;;;;5092198;28;20491;-72
2021/12/26 13:06:51;;;;;;;11.23;6.97;;;4.80;84.30;;;;;;5111245;27;20911;-73
2021/12/26 13:09:17;;;;;;;10.55;6.90;;;4.70;84.00;;;;;;5093114;27;20870;-72
2021/12/26 13:11:43;;;;;;;9.63;6.90;;;4.70;83.70;;;;;;5107832;28;20474;-72
2021/12/26 13:14:10;;;;;;;13.40;7.78;;;4.60;84.00;;;;;;5110114;27;20486;-71